Terminal Aerodrome Forecast
Issued by NWS

Home | Current Version | Previous Version | Text Only | Print | Product List | Glossary On
Versions: 1 2 3 4 5 6 7 8 9 10 11 12 13 14 15 16 17 18 19 20 21 22 23 24 25
000
FTUS46 KSEW 250520
TAFHQM
TAF
KHQM 250520Z 2506/2606 27005KT P6SM OVC009
     FM251000 VRB03KT 2SM BR OVC004
     FM251500 19009KT 4SM -RA BR BKN008 OVC020
     FM260300 15004KT P6SM VCSH OVC020=

USA.gov is the U.S. government's official web portal to all federal, state and local government web resources and services.